Royal City, WA

8:47 PM PDT on May 22, 2015 (GMT -0700)
Ephrata Municipal | | Change Station
CLOSE
Current Station
Airport
Location: Ephrata,
Elevation: 1273 ft
Nearby Weather Stations

Elev 1273 ft 47.31 °N, 119.52 °W | Updated 25 minutes ago

Overcast
Overcast
70 °F
Feels Like 70 °F
N
14
Wind Variable Wind from ESE

Today
High -- | Low -- °F
--% Chance of Precip.
Yesterday
High -- | Low -- °F
Precip. -- in
5:15 AM 8:34 PM
Waxing Crescent, 26% visible
Pressure 29.85 in
Visibility 10.0 miles
Clouds Overcast 10000 ft
Dew Point 49 °F
Humidity 47%
Rainfall 0.00 in
Snow Depth Not available.
UV 0 out of 12
Pollen 6.00 out of 12
Air Quality Not available.
Flu Activity Sporadic
SPECI KEPH 230322Z AUTO 12012KT 10SM OVC100 21/09 A2985 RMK AO2 LTG DSNT SE TSE06 T02110094

More Conditions Fewer Conditions

Pressure 29.85 in
Visibility 10.0 miles
Clouds Overcast 10000 ft
Dew Point 49 °F
Humidity 47%
Rainfall 0.00 in
Snow Depth Not available.
UV 0 out of 12
Pollen 6.00 out of 12
Air Quality Not available.
Flu Activity Sporadic
SPECI KEPH 230322Z AUTO 12012KT 10SM OVC100 21/09 A2985 RMK AO2 LTG DSNT SE TSE06 T02110094

More Conditions Fewer Conditions

Nowcast | as of 6:49 PM PDT on May 22, 2015

At 648 PM PDT...Doppler radar indicated a line of thunderstorms... along a line extending from 19 miles northwest of Ritzville to near Delaney moving west at 20 mph. Pea size hail...wind gusts to 40 mph...and brief heavy downpours remain common near this line of thunderstorms. Locations impacted include but not limited to... Moses Lake...Othello...Warden...Ritzville...Moses Lake north... Cascade Valley...Odessa...Lind...Washtucna...Hatton...Paha... Beatrice...Packard...Marcellus...Moody...Batum...pizzro...Wheeler... Cunningham and Schrag.

×

10-Day Weather Forecast

Almanac

Astronomy

May. 22, 2015 Rise Set
Actual Time
Civil Twilight
Nautical Twilight
Astronomical Twilight
Moon
Length of Visible Light
Length of Day
Tomorrow will be .
, % of the Moon is Illuminated

Today's Extremes

State Highs State Lows

Community

WunderPhotos

Upload Photos

1,823,383 photos uploaded!

WunderBlogs® & News

Nearby

Air Quality

  Air Quality AQ Index Pollutant
Not available.

Snow Depth

Station Depth Elevation

Earthquake Activity

City Distance Mag. Time & Date
Minimum magnitude displayed is 2.5.

Coastal Water Temperatures

Place Temperature

Stations

Nearby Weather Stations

Station Location Temp. Windchill Dew Point Humidity Wind Precip. Elev Updated Type